createdAt,value
2023-01-02T00:00:52.830Z,-2.28
2023-01-02T00:01:52.794Z,-2.61
2023-01-02T00:02:52.864Z,-2.61
2023-01-02T00:03:52.879Z,-2.61
2023-01-02T00:04:52.783Z,-2.61
2023-01-02T00:05:52.784Z,-2.61
2023-01-02T00:06:52.792Z,-2.61
2023-01-02T00:07:52.804Z,-2.89
2023-01-02T00:08:52.819Z,-2.72
2023-01-02T00:09:52.780Z,-2.89
2023-01-02T00:10:53.206Z,-3.06
2023-01-02T00:11:52.783Z,-3.06
2023-01-02T00:12:52.768Z,-2.72
2023-01-02T00:13:52.773Z,-2.44
2023-01-02T00:14:52.781Z,-2.44
2023-01-02T00:15:52.922Z,-2.44
2023-01-02T00:16:52.810Z,-2.61
2023-01-02T00:17:52.782Z,-2.44
2023-01-02T00:18:52.778Z,-2.61
2023-01-02T00:19:52.791Z,-2.61
2023-01-02T00:20:52.780Z,-2.61
2023-01-02T00:21:52.776Z,-3.06
2023-01-02T00:22:52.796Z,-2.44
2023-01-02T00:23:52.779Z,-2.89
2023-01-02T00:24:52.812Z,-2.89
2023-01-02T00:25:52.773Z,-2.61
2023-01-02T00:26:52.783Z,-2.61
2023-01-02T00:27:52.788Z,-2.89
2023-01-02T00:28:52.779Z,-2.89
2023-01-02T00:29:52.773Z,-2.61
2023-01-02T00:30:52.778Z,-2.61
2023-01-02T00:31:52.799Z,-2.89
2023-01-02T00:32:52.790Z,-2.72
2023-01-02T00:33:52.776Z,-3.28
2023-01-02T00:34:52.806Z,-3.17
2023-01-02T00:35:52.782Z,-3.06
2023-01-02T00:36:52.782Z,-3.06
2023-01-02T00:37:52.805Z,-3.06
2023-01-02T00:38:52.774Z,-2.89
2023-01-02T00:39:52.797Z,-3.06
2023-01-02T00:40:52.807Z,-3.06
2023-01-02T00:41:52.788Z,-2.89
2023-01-02T00:42:52.791Z,-2.89
2023-01-02T00:43:52.804Z,-3.17
2023-01-02T00:44:52.783Z,-3.17
2023-01-02T00:45:52.778Z,-3.06
2023-01-02T00:46:52.863Z,-2.89
2023-01-02T00:47:52.802Z,-3.06
2023-01-02T00:48:52.780Z,-2.89
2023-01-02T00:49:52.788Z,-3.06
2023-01-02T00:50:52.782Z,-3.17
2023-01-02T00:51:52.777Z,-3.06
2023-01-02T00:52:52.769Z,-3.06
2023-01-02T00:53:52.792Z,-3.06
2023-01-02T00:54:52.795Z,-3.06
2023-01-02T00:55:52.770Z,-3.17
2023-01-02T00:56:52.889Z,-3.06
2023-01-02T00:57:52.807Z,-3.17
2023-01-02T00:58:52.772Z,-3.17
2023-01-02T00:59:52.812Z,-3.06
2023-01-02T01:00:52.828Z,-3.17
2023-01-02T01:01:52.843Z,-3.06
2023-01-02T01:02:52.791Z,-3.28
2023-01-02T01:03:52.777Z,-3.28
2023-01-02T01:04:52.793Z,-3.28
2023-01-02T01:05:52.812Z,-3.06
2023-01-02T01:06:52.787Z,-3.17
2023-01-02T01:07:52.776Z,-3.17
2023-01-02T01:08:52.785Z,-3.06
2023-01-02T01:09:52.779Z,-3.28
2023-01-02T01:10:52.771Z,-3.17
2023-01-02T01:11:52.786Z,-3.06
2023-01-02T01:12:52.838Z,-3.28
2023-01-02T01:13:52.786Z,-3.06
2023-01-02T01:14:52.782Z,-3.06
2023-01-02T01:15:52.818Z,-3.06
2023-01-02T01:16:52.790Z,-3.17
2023-01-02T01:17:52.784Z,-2.89
2023-01-02T01:18:52.800Z,-3.17
2023-01-02T01:19:52.797Z,-3.17
2023-01-02T01:20:52.785Z,-3.06
2023-01-02T01:21:52.812Z,-3.06
2023-01-02T01:22:52.795Z,-3.06
2023-01-02T01:23:52.940Z,-3.61
2023-01-02T01:24:52.789Z,-3.28
2023-01-02T01:25:52.787Z,-3.06
2023-01-02T01:26:52.796Z,-2.89
2023-01-02T01:27:52.795Z,-3.28
2023-01-02T01:28:52.934Z,-3.44
2023-01-02T01:29:52.788Z,-3.44
2023-01-02T01:30:52.787Z,-2.61
2023-01-02T01:31:52.793Z,-2.89
2023-01-02T01:32:52.784Z,-2.89
2023-01-02T01:33:52.798Z,-3.17
2023-01-02T01:34:52.787Z,-3.44
2023-01-02T01:35:52.803Z,-3.17
2023-01-02T01:36:52.800Z,-3.06
2023-01-02T01:37:52.781Z,-3.44
2023-01-02T01:38:52.818Z,-3.06
2023-01-02T01:39:56.491Z,-3.28
2023-01-02T01:40:52.789Z,-3.17
2023-01-02T01:41:52.790Z,-3.17
2023-01-02T01:42:56.101Z,-3.06
2023-01-02T01:43:52.813Z,-3.28
2023-01-02T01:44:52.821Z,-3.06
2023-01-02T01:45:52.852Z,-3.28
2023-01-02T01:46:52.797Z,-3.61
2023-01-02T01:47:52.811Z,-3.44
2023-01-02T01:48:52.798Z,-3.61
2023-01-02T01:49:52.788Z,-3.28
2023-01-02T01:50:52.784Z,-3.44
2023-01-02T01:51:52.803Z,-3.44
2023-01-02T01:52:52.784Z,-3.28
2023-01-02T01:53:52.793Z,-3.44
2023-01-02T01:54:52.789Z,-3.28
2023-01-02T01:55:52.789Z,-3.44
2023-01-02T01:56:52.790Z,-3.61
2023-01-02T01:57:52.810Z,-3.06
2023-01-02T01:58:52.792Z,-3.17
2023-01-02T01:59:52.791Z,-2.89
2023-01-02T02:00:52.871Z,-2.89
2023-01-02T02:01:52.904Z,-3.06
2023-01-02T02:02:52.857Z,-3.44
2023-01-02T02:03:52.797Z,-3.17
2023-01-02T02:04:52.799Z,-3.06
2023-01-02T02:05:52.820Z,-3.06
2023-01-02T02:06:52.813Z,-3.06
2023-01-02T02:07:52.795Z,-3.44
2023-01-02T02:08:52.792Z,-3.06
2023-01-02T02:09:52.810Z,-3.28
2023-01-02T02:10:52.800Z,-3.06
2023-01-02T02:11:52.797Z,-3.06
2023-01-02T02:12:52.846Z,-3.17
2023-01-02T02:13:52.806Z,-3.44
2023-01-02T02:14:52.799Z,-3.17
2023-01-02T02:15:52.805Z,-3.17
2023-01-02T02:16:52.873Z,-3.06
2023-01-02T02:17:52.811Z,-3.17
2023-01-02T02:18:52.814Z,-3.28
2023-01-02T02:19:52.806Z,-3.28
2023-01-02T02:20:52.798Z,-3.44
2023-01-02T02:21:52.798Z,-3.17
2023-01-02T02:22:52.812Z,-3.28
2023-01-02T02:23:52.806Z,-3.61
2023-01-02T02:24:52.808Z,-3.44
2023-01-02T02:25:52.807Z,-3.44
2023-01-02T02:26:52.791Z,-3.61
2023-01-02T02:27:52.809Z,-3.44
2023-01-02T02:28:52.788Z,-3.44
2023-01-02T02:29:52.799Z,-3.17
2023-01-02T02:30:52.796Z,-3.17
2023-01-02T02:31:52.839Z,-3.44
2023-01-02T02:32:52.838Z,-3.17
2023-01-02T02:33:52.816Z,-3.17
2023-01-02T02:34:52.792Z,-3.28
2023-01-02T02:35:52.807Z,-3.28
2023-01-02T02:36:52.804Z,-3.28
2023-01-02T02:37:52.800Z,-3.44
2023-01-02T02:38:52.793Z,-3.06
2023-01-02T02:39:52.836Z,-3.28
2023-01-02T02:40:52.815Z,-3.06
2023-01-02T02:41:52.798Z,-3.17
2023-01-02T02:42:52.816Z,-2.89
2023-01-02T02:43:52.809Z,-3.06
2023-01-02T02:44:52.791Z,-3.28
2023-01-02T02:45:52.831Z,-3.17
2023-01-02T02:46:52.809Z,-3.17
2023-01-02T02:47:52.806Z,-3.28
2023-01-02T02:48:52.836Z,-3.72
2023-01-02T02:49:52.830Z,-3.28
2023-01-02T02:50:52.809Z,-3.44
2023-01-02T02:51:52.810Z,-3.61
2023-01-02T02:52:52.796Z,-3.44
2023-01-02T02:53:52.817Z,-3.61
2023-01-02T02:54:52.807Z,-3.61
2023-01-02T02:55:52.805Z,-3.44
2023-01-02T02:56:52.804Z,-3.44
2023-01-02T02:57:52.827Z,-3.06
2023-01-02T02:58:52.830Z,-3.61
2023-01-02T02:59:52.810Z,-3.44
2023-01-02T03:00:52.871Z,-3.61
2023-01-02T03:01:52.935Z,-3.61
2023-01-02T03:02:52.905Z,-3.44
2023-01-02T03:03:52.813Z,-3.72
2023-01-02T03:04:52.928Z,-3.61
2023-01-02T03:05:52.825Z,-4.06
2023-01-02T03:06:52.835Z,-3.89
2023-01-02T03:07:52.805Z,-3.89
2023-01-02T03:08:52.804Z,-3.89
2023-01-02T03:09:52.830Z,-4.06
2023-01-02T03:10:52.819Z,-3.89
2023-01-02T03:11:52.800Z,-3.72
2023-01-02T03:12:52.833Z,-3.44
2023-01-02T03:13:52.808Z,-3.44
2023-01-02T03:14:52.810Z,-3.61
2023-01-02T03:15:52.813Z,-3.72
2023-01-02T03:16:52.850Z,-3.72
2023-01-02T03:17:52.817Z,-3.72
2023-01-02T03:18:52.826Z,-3.44
2023-01-02T03:19:52.828Z,-3.61
2023-01-02T03:20:52.834Z,-3.44
2023-01-02T03:21:52.830Z,-3.44
2023-01-02T03:22:52.806Z,-3.61
2023-01-02T03:23:52.816Z,-3.61
2023-01-02T03:24:52.814Z,-3.61
2023-01-02T03:25:52.809Z,-3.72
2023-01-02T03:26:52.809Z,-3.61
2023-01-02T03:27:52.819Z,-3.72
2023-01-02T03:28:52.807Z,-3.61
2023-01-02T03:29:52.816Z,-3.28
2023-01-02T03:30:52.865Z,-3.28
2023-01-02T03:31:52.812Z,-3.28
2023-01-02T03:32:52.832Z,-3.06
2023-01-02T03:33:52.814Z,-3.28
2023-01-02T03:34:52.818Z,-3.06
2023-01-02T03:35:52.808Z,-3.06
2023-01-02T03:36:52.843Z,-2.89
2023-01-02T03:37:52.819Z,-3.61
2023-01-02T03:38:52.815Z,-3.28
2023-01-02T03:39:52.812Z,-3.61
2023-01-02T03:40:52.821Z,-3.44
2023-01-02T03:41:52.815Z,-3.61
2023-01-02T03:42:52.826Z,-3.44
2023-01-02T03:43:56.695Z,-3.61
2023-01-02T03:44:52.836Z,-3.44
2023-01-02T03:45:52.830Z,-3.44
2023-01-02T03:46:52.814Z,-3.61
2023-01-02T03:47:52.835Z,-3.61
2023-01-02T03:48:52.812Z,-3.44
2023-01-02T03:49:52.814Z,-3.44
2023-01-02T03:50:52.845Z,-3.44
2023-01-02T03:51:52.840Z,-3.44
2023-01-02T03:52:52.838Z,-3.61
2023-01-02T03:53:52.812Z,-3.61
2023-01-02T03:54:52.807Z,-3.44
2023-01-02T03:55:52.821Z,-3.44
2023-01-02T03:56:52.812Z,-3.61
2023-01-02T03:57:57.178Z,-3.28
2023-01-02T03:58:52.817Z,-3.44
2023-01-02T03:59:52.827Z,-3.28
2023-01-02T04:00:52.833Z,-3.44
2023-01-02T04:01:52.942Z,-3.44
2023-01-02T04:02:52.923Z,-3.61
2023-01-02T04:03:52.817Z,-3.44
2023-01-02T04:04:52.806Z,-3.44
2023-01-02T04:05:52.828Z,-3.44
2023-01-02T04:06:52.807Z,-3.44
2023-01-02T04:07:52.810Z,-3.28
2023-01-02T04:08:52.842Z,-3.06
2023-01-02T04:09:52.821Z,-3.06
2023-01-02T04:10:56.495Z,-3.06
2023-01-02T04:11:52.816Z,-3.06
2023-01-02T04:12:52.825Z,-3.44
2023-01-02T04:13:52.819Z,-3.06
2023-01-02T04:14:52.812Z,-3.44
2023-01-02T04:15:52.838Z,-3.44
2023-01-02T04:16:52.834Z,-3.28
2023-01-02T04:17:52.833Z,-3.72
2023-01-02T04:18:52.830Z,-3.61
2023-01-02T04:19:52.849Z,-3.44
2023-01-02T04:20:52.849Z,-3.61
2023-01-02T04:21:52.832Z,-3.61
2023-01-02T04:22:52.832Z,-3.44
2023-01-02T04:23:52.830Z,-3.61
2023-01-02T04:24:52.837Z,-3.61
2023-01-02T04:25:52.828Z,-3.61
2023-01-02T04:26:52.820Z,-3.44
2023-01-02T04:27:52.823Z,-3.44
2023-01-02T04:28:52.821Z,-3.61
2023-01-02T04:29:52.829Z,-3.44
2023-01-02T04:30:52.891Z,-3.72
2023-01-02T04:31:52.825Z,-3.44
2023-01-02T04:32:52.837Z,-3.72
2023-01-02T04:33:52.849Z,-3.72
2023-01-02T04:34:52.819Z,-3.44
2023-01-02T04:35:52.840Z,-3.44
2023-01-02T04:36:52.833Z,-3.28
2023-01-02T04:37:52.857Z,-3.61
2023-01-02T04:38:52.858Z,-3.44
2023-01-02T04:39:52.837Z,-3.28
2023-01-02T04:40:52.852Z,-3.44
2023-01-02T04:41:52.840Z,-3.28
2023-01-02T04:42:52.824Z,-3.61
2023-01-02T04:43:52.826Z,-3.61
2023-01-02T04:44:52.812Z,-3.44
2023-01-02T04:45:52.893Z,-3.28
2023-01-02T04:46:52.821Z,-3.44
2023-01-02T04:47:52.828Z,-3.28
2023-01-02T04:48:52.817Z,-3.17
2023-01-02T04:49:52.830Z,-3.17
2023-01-02T04:50:52.828Z,-3.06
2023-01-02T04:51:52.864Z,-3.06
2023-01-02T04:52:52.833Z,-3.28
2023-01-02T04:53:52.828Z,-3.06
2023-01-02T04:54:52.823Z,-3.06
2023-01-02T04:55:52.835Z,-3.28
2023-01-02T04:56:52.846Z,-3.06
2023-01-02T04:57:52.835Z,-3.28
2023-01-02T04:58:52.839Z,-3.28
2023-01-02T04:59:52.832Z,-3.06
2023-01-02T05:00:52.828Z,-3.06
2023-01-02T05:01:52.885Z,-3.06
2023-01-02T05:02:52.887Z,-3.28
2023-01-02T05:03:52.965Z,-3.44
2023-01-02T05:04:52.829Z,-3.06
2023-01-02T05:05:52.835Z,-3.28
2023-01-02T05:06:52.829Z,-3.06
2023-01-02T05:07:52.826Z,-3.06
2023-01-02T05:08:52.862Z,-3.17
2023-01-02T05:09:52.834Z,-3.28
2023-01-02T05:10:52.845Z,-3.44
2023-01-02T05:11:52.846Z,-3.17
2023-01-02T05:12:52.859Z,-3.28
2023-01-02T05:13:52.837Z,-3.17
2023-01-02T05:14:52.829Z,-3.61
2023-01-02T05:15:52.832Z,-3.28
2023-01-02T05:16:52.827Z,-3.17
2023-01-02T05:17:52.825Z,-3.28
2023-01-02T05:18:52.831Z,-3.44
2023-01-02T05:19:52.850Z,-3.72
2023-01-02T05:20:52.840Z,-3.28
2023-01-02T05:21:52.836Z,-3.28
2023-01-02T05:22:52.824Z,-3.28
2023-01-02T05:23:52.844Z,-3.44
2023-01-02T05:24:52.831Z,-3.44
2023-01-02T05:25:52.837Z,-3.61
2023-01-02T05:26:52.835Z,-3.17
2023-01-02T05:27:52.843Z,-3.17
2023-01-02T05:28:52.855Z,-3.17
2023-01-02T05:29:52.861Z,-3.44
2023-01-02T05:30:52.882Z,-3.17
2023-01-02T05:31:52.845Z,-3.44
2023-01-02T05:32:52.859Z,-3.44
2023-01-02T05:33:52.843Z,-3.28
2023-01-02T05:34:52.834Z,-3.44
2023-01-02T05:35:52.837Z,-3.06
2023-01-02T05:36:52.830Z,-2.89
2023-01-02T05:37:52.846Z,-2.89
2023-01-02T05:38:52.860Z,-2.72
2023-01-02T05:39:52.841Z,-3.06
2023-01-02T05:40:52.848Z,-2.89
2023-01-02T05:41:52.834Z,-3.28
2023-01-02T05:42:52.846Z,-3.44
2023-01-02T05:43:52.838Z,-3.17
2023-01-02T05:44:52.850Z,-3.17
2023-01-02T05:45:52.837Z,-3.17
2023-01-02T05:46:52.865Z,-3.17
2023-01-02T05:47:52.845Z,-3.28
2023-01-02T05:48:52.829Z,-3.17
2023-01-02T05:49:52.841Z,-3.06
2023-01-02T05:50:52.847Z,-3.28
2023-01-02T05:51:52.840Z,-3.44
2023-01-02T05:52:52.834Z,-3.28
2023-01-02T05:53:52.846Z,-3.17
2023-01-02T05:54:52.834Z,-3.17
2023-01-02T05:55:52.826Z,-3.06
2023-01-02T05:56:52.829Z,-3.17
2023-01-02T05:57:52.835Z,-3.28
2023-01-02T05:58:52.836Z,-3.28
2023-01-02T05:59:52.872Z,-3.28
2023-01-02T06:00:52.863Z,-3.28
2023-01-02T06:01:52.883Z,-3.44
2023-01-02T06:02:52.996Z,-3.28
2023-01-02T06:03:52.889Z,-3.17
2023-01-02T06:04:52.832Z,-3.06
2023-01-02T06:05:52.833Z,-3.28
2023-01-02T06:06:52.849Z,-3.28
2023-01-02T06:07:52.848Z,-3.06
2023-01-02T06:08:52.838Z,-3.28
2023-01-02T06:09:52.863Z,-3.44
2023-01-02T06:10:52.842Z,-3.06
2023-01-02T06:11:52.846Z,-3.44
2023-01-02T06:12:52.835Z,-3.17
2023-01-02T06:13:52.845Z,-3.28
2023-01-02T06:14:52.849Z,-3.44
2023-01-02T06:15:52.881Z,-3.06
2023-01-02T06:16:52.889Z,-3.06
2023-01-02T06:17:52.848Z,-3.72
2023-01-02T06:18:52.845Z,-3.44
2023-01-02T06:19:54.191Z,-3.28
2023-01-02T06:20:52.835Z,-3.17
2023-01-02T06:21:52.862Z,-3.17
2023-01-02T06:22:52.846Z,-3.17
2023-01-02T06:23:52.828Z,-3.17
2023-01-02T06:24:52.843Z,-3.06
2023-01-02T06:25:52.841Z,-3.06
2023-01-02T06:26:52.841Z,-3.06
2023-01-02T06:27:52.839Z,-3.44
2023-01-02T06:28:52.853Z,-3.28
2023-01-02T06:29:52.853Z,-3.28
2023-01-02T06:30:52.839Z,-3.28
2023-01-02T06:31:52.868Z,-3.44
2023-01-02T06:32:52.869Z,-3.61
2023-01-02T06:33:52.850Z,-3.72
2023-01-02T06:34:52.835Z,-3.28
2023-01-02T06:35:52.844Z,-3.17
2023-01-02T06:36:52.837Z,-3.44
2023-01-02T06:37:52.841Z,-3.28
2023-01-02T06:38:52.840Z,-3.28
2023-01-02T06:39:52.858Z,-3.28
2023-01-02T06:40:52.847Z,-3.44
2023-01-02T06:41:52.848Z,-3.28
2023-01-02T06:42:55.906Z,-3.44
2023-01-02T06:43:52.854Z,-3.17
2023-01-02T06:44:52.847Z,-3.06
2023-01-02T06:45:52.913Z,-3.17
2023-01-02T06:46:52.832Z,-3.17
2023-01-02T06:47:52.853Z,-3.72
2023-01-02T06:48:52.866Z,-3.17
2023-01-02T06:49:52.845Z,-3.17
2023-01-02T06:50:52.853Z,-3.28
2023-01-02T06:51:52.864Z,-3.44
2023-01-02T06:52:52.846Z,-3.44
2023-01-02T06:53:52.842Z,-3.61
2023-01-02T06:54:52.853Z,-3.44
2023-01-02T06:55:52.861Z,-3.28
2023-01-02T06:56:52.877Z,-3.28
2023-01-02T06:57:52.851Z,-3.06
2023-01-02T06:58:52.873Z,-3.28
2023-01-02T06:59:52.846Z,-3.17
2023-01-02T07:00:52.897Z,-3.06
2023-01-02T07:01:52.907Z,-3.44
2023-01-02T07:02:52.888Z,-3.17
2023-01-02T07:03:52.852Z,-3.06
2023-01-02T07:04:52.861Z,-3.44
2023-01-02T07:05:52.849Z,-3.44
2023-01-02T07:06:52.881Z,-3.28
2023-01-02T07:07:52.890Z,-3.44
2023-01-02T07:08:52.858Z,-3.28
2023-01-02T07:09:52.845Z,-3.44
2023-01-02T07:10:53.245Z,-2.89
2023-01-02T07:11:52.850Z,-3.28
2023-01-02T07:12:52.865Z,-3.17
2023-01-02T07:13:52.843Z,-3.17
2023-01-02T07:14:52.851Z,-3.06
2023-01-02T07:15:52.850Z,-3.06
2023-01-02T07:16:52.903Z,-3.28
2023-01-02T07:17:52.869Z,-3.61
2023-01-02T07:18:52.853Z,-3.44
2023-01-02T07:19:54.484Z,-3.44
2023-01-02T07:20:52.881Z,-3.44
2023-01-02T07:21:52.849Z,-3.61
2023-01-02T07:22:52.851Z,-3.44
2023-01-02T07:23:52.858Z,-3.28
2023-01-02T07:24:52.856Z,-3.17
2023-01-02T07:25:52.871Z,-3.28
2023-01-02T07:26:52.849Z,-3.28
2023-01-02T07:27:52.853Z,-3.28
2023-01-02T07:28:52.865Z,-3.44
2023-01-02T07:29:52.856Z,-3.44
2023-01-02T07:30:52.856Z,-3.72
2023-01-02T07:31:52.863Z,-3.61
2023-01-02T07:32:52.841Z,-3.28
2023-01-02T07:33:52.859Z,-3.44
2023-01-02T07:34:52.857Z,-3.44
2023-01-02T07:35:52.844Z,-3.28
2023-01-02T07:36:52.967Z,-3.61
2023-01-02T07:37:52.866Z,-3.61
2023-01-02T07:38:52.853Z,-3.61
2023-01-02T07:39:52.847Z,-3.61
2023-01-02T07:40:52.889Z,-3.61
2023-01-02T07:41:52.865Z,-3.72
2023-01-02T07:42:52.855Z,-3.17
2023-01-02T07:43:52.867Z,-3.17
2023-01-02T07:44:52.862Z,-3.44
2023-01-02T07:45:52.913Z,-3.44
2023-01-02T07:46:52.852Z,-3.44
2023-01-02T07:47:52.864Z,-3.28
2023-01-02T07:48:52.876Z,-3.28
2023-01-02T07:49:52.864Z,-3.17
2023-01-02T07:50:52.867Z,-3.44
2023-01-02T07:51:52.849Z,-3.06
2023-01-02T07:52:52.881Z,-3.28
2023-01-02T07:53:52.857Z,-3.17
2023-01-02T07:54:52.852Z,-3.28
2023-01-02T07:55:52.849Z,-3.17
2023-01-02T07:56:52.851Z,-2.89
2023-01-02T07:57:52.864Z,-3.06
2023-01-02T07:58:52.850Z,-3.06
2023-01-02T07:59:52.844Z,-2.89
2023-01-02T08:00:52.887Z,-3.06
2023-01-02T08:01:52.955Z,-3.17
2023-01-02T08:02:52.866Z,-3.17
2023-01-02T08:03:52.920Z,-3.06
2023-01-02T08:04:52.865Z,-3.06
2023-01-02T08:05:52.885Z,-2.72
2023-01-02T08:06:52.861Z,-3.06
2023-01-02T08:07:52.858Z,-3.06
2023-01-02T08:08:52.885Z,-2.72
2023-01-02T08:09:52.869Z,-2.61
2023-01-02T08:10:52.849Z,-2.72
2023-01-02T08:11:52.865Z,-2.72
2023-01-02T08:12:52.855Z,-2.89
2023-01-02T08:13:52.852Z,-2.72
2023-01-02T08:14:52.865Z,-2.72
2023-01-02T08:15:52.861Z,-2.61
2023-01-02T08:16:52.881Z,-2.89
2023-01-02T08:17:52.861Z,-3.06
2023-01-02T08:18:52.857Z,-2.61
2023-01-02T08:19:52.850Z,-2.89
2023-01-02T08:20:52.863Z,-2.44
2023-01-02T08:21:52.860Z,-2.61
2023-01-02T08:22:52.866Z,-2.28
2023-01-02T08:23:52.891Z,-2.44
2023-01-02T08:24:52.881Z,-2.72
2023-01-02T08:25:57.421Z,-2.44
2023-01-02T08:26:52.855Z,-2.89
2023-01-02T08:27:52.866Z,-2.61
2023-01-02T08:28:52.867Z,-2.61
2023-01-02T08:29:52.861Z,-2.28
2023-01-02T08:30:52.927Z,-2.28
2023-01-02T08:31:52.864Z,-2.61
2023-01-02T08:32:52.871Z,-2.17
2023-01-02T08:33:52.869Z,-2.28
2023-01-02T08:34:52.859Z,-2.17
2023-01-02T08:35:52.855Z,-2.44
2023-01-02T08:36:52.866Z,-2.17
2023-01-02T08:37:52.872Z,-2
2023-01-02T08:38:52.872Z,-2
2023-01-02T08:39:52.868Z,-1.67
2023-01-02T08:40:52.915Z,-1.67
2023-01-02T08:41:52.874Z,-1.83
2023-01-02T08:42:52.855Z,-1.83
2023-01-02T08:43:52.885Z,-1.83
2023-01-02T08:44:52.857Z,-1.67
2023-01-02T08:45:52.891Z,-1.83
2023-01-02T08:46:52.854Z,-1.67
2023-01-02T08:47:52.862Z,-1.83
2023-01-02T08:48:52.921Z,-1.83
2023-01-02T08:49:52.867Z,-1.83
2023-01-02T08:50:52.883Z,-1.83
2023-01-02T08:51:52.860Z,-1.67
2023-01-02T08:52:52.875Z,-1.67
2023-01-02T08:53:52.891Z,-1.83
2023-01-02T08:54:52.883Z,-1.83
2023-01-02T08:55:52.872Z,-1.83
2023-01-02T08:56:52.993Z,-1.56
2023-01-02T08:57:52.864Z,-1.67
2023-01-02T08:58:53.104Z,-1.67
2023-01-02T08:59:52.869Z,-1.67
2023-01-02T09:00:52.866Z,-1.67
2023-01-02T09:01:52.960Z,-2
2023-01-02T09:02:52.940Z,-1.67
2023-01-02T09:03:52.905Z,-2.17
2023-01-02T09:04:52.864Z,-1.67
2023-01-02T09:05:52.877Z,-1.83
2023-01-02T09:06:52.891Z,-2
2023-01-02T09:07:52.895Z,-1.83
2023-01-02T09:08:52.890Z,-1.56
2023-01-02T09:09:52.876Z,-1.83
2023-01-02T09:10:52.880Z,-1.67
2023-01-02T09:11:52.876Z,-1.44
2023-01-02T09:12:53.003Z,-1.83
2023-01-02T09:13:52.874Z,-1.44
2023-01-02T09:14:52.877Z,-1.67
2023-01-02T09:15:52.925Z,-1.44
2023-01-02T09:16:52.876Z,-1.28
2023-01-02T09:17:52.898Z,-1.28
2023-01-02T09:18:52.889Z,-1.44
2023-01-02T09:19:52.873Z,-1.83
2023-01-02T09:20:52.869Z,-1.28
2023-01-02T09:21:52.878Z,-1.67
2023-01-02T09:22:52.886Z,-1.56
2023-01-02T09:23:52.888Z,-1.67
2023-01-02T09:24:52.880Z,-2
2023-01-02T09:25:52.884Z,-1.67
2023-01-02T09:26:52.877Z,-1.44
2023-01-02T09:27:52.892Z,-1.28
2023-01-02T09:28:52.897Z,-1.28
2023-01-02T09:29:52.872Z,-1.11
2023-01-02T09:30:52.906Z,-1
2023-01-02T09:31:52.878Z,-1.11
2023-01-02T09:32:52.880Z,-0.83
2023-01-02T09:33:52.889Z,-1.28
2023-01-02T09:34:52.887Z,-1.11
2023-01-02T09:35:52.868Z,-0.83
2023-01-02T09:36:52.875Z,-1.28
2023-01-02T09:37:52.914Z,-1.28
2023-01-02T09:38:52.883Z,-1.56
2023-01-02T09:39:52.880Z,-1.44
2023-01-02T09:40:52.879Z,-1.56
2023-01-02T09:41:52.878Z,-1.56
2023-01-02T09:42:52.876Z,-1
2023-01-02T09:43:52.879Z,-1.11
2023-01-02T09:44:52.929Z,-1.11
2023-01-02T09:45:52.884Z,-1.56
2023-01-02T09:46:52.885Z,-1.28
2023-01-02T09:47:52.891Z,-1.28
2023-01-02T09:48:52.876Z,-1.28
2023-01-02T09:49:52.892Z,-0.83
2023-01-02T09:50:52.878Z,-0.39
2023-01-02T09:51:52.883Z,-0.67
2023-01-02T09:52:52.876Z,-1.44
2023-01-02T09:53:52.879Z,-1.44
2023-01-02T09:54:52.901Z,-1.44
2023-01-02T09:55:52.884Z,-1.11
2023-01-02T09:56:52.892Z,-1.28
2023-01-02T09:57:52.885Z,-1.28
2023-01-02T09:58:52.965Z,-0.83
2023-01-02T09:59:52.894Z,-0.83
2023-01-02T10:00:52.935Z,-0.83
2023-01-02T10:01:52.919Z,-0.67
2023-01-02T10:02:52.939Z,-0.56
2023-01-02T10:03:52.917Z,-0.39
2023-01-02T10:04:52.883Z,-0.67
2023-01-02T10:05:52.883Z,-0.39
2023-01-02T10:06:52.893Z,-0.28
2023-01-02T10:07:52.896Z,-0.39
2023-01-02T10:08:52.885Z,-0.39
2023-01-02T10:09:52.886Z,0
2023-01-02T10:10:52.882Z,0
2023-01-02T10:11:52.893Z,-0.28
2023-01-02T10:12:52.878Z,0
2023-01-02T10:14:17.852Z,0
2023-01-02T10:14:52.885Z,0
2023-01-02T10:15:52.953Z,-0.28
2023-01-02T10:16:52.916Z,-0.39
2023-01-02T10:17:52.882Z,-0.39
2023-01-02T10:18:52.891Z,-0.39
2023-01-02T10:19:52.885Z,-0.39
2023-01-02T10:20:52.885Z,-0.17
2023-01-02T10:21:52.886Z,-0.17
2023-01-02T10:22:52.895Z,0.61
2023-01-02T10:23:52.892Z,0.44
2023-01-02T10:24:52.884Z,0.44
2023-01-02T10:25:53.227Z,1.06
2023-01-02T10:26:52.893Z,1.06
2023-01-02T10:27:52.896Z,1.61
2023-01-02T10:28:52.890Z,1.5
2023-01-02T10:29:52.885Z,1.5
2023-01-02T10:30:52.922Z,1.33
2023-01-02T10:31:52.947Z,1.61
2023-01-02T10:32:52.919Z,2
2023-01-02T10:33:52.894Z,1.72
2023-01-02T10:34:52.909Z,1.72
2023-01-02T10:35:52.895Z,1.72
2023-01-02T10:36:52.885Z,1.61
2023-01-02T10:37:52.912Z,1.17
2023-01-02T10:38:52.891Z,1.5
2023-01-02T10:39:52.897Z,1.61
2023-01-02T10:40:52.894Z,1.61
2023-01-02T10:41:52.905Z,2.28
2023-01-02T10:42:57.835Z,2
2023-01-02T10:43:52.891Z,2.28
2023-01-02T10:44:52.890Z,2.61
2023-01-02T10:45:52.892Z,2.28
2023-01-02T10:46:52.904Z,2.17
2023-01-02T10:47:52.899Z,2.44
2023-01-02T10:48:53.019Z,2.89
2023-01-02T10:49:52.909Z,3
2023-01-02T10:50:52.907Z,3
2023-01-02T10:51:52.909Z,3.17
2023-01-02T10:52:52.910Z,3.56
2023-01-02T10:53:52.896Z,3.83
2023-01-02T10:54:58.900Z,3.44
2023-01-02T10:55:52.887Z,3.44
2023-01-02T10:56:52.895Z,3.56
2023-01-02T10:57:52.898Z,3.83
2023-01-02T10:58:52.898Z,3.56
2023-01-02T10:59:52.899Z,3.72
2023-01-02T11:00:52.973Z,3.56
2023-01-02T11:01:53.096Z,4
2023-01-02T11:02:53.003Z,4
2023-01-02T11:03:52.903Z,4.28
2023-01-02T11:04:52.927Z,4.28
2023-01-02T11:05:52.929Z,4.72
2023-01-02T11:06:52.897Z,4.72
2023-01-02T11:07:52.898Z,5.17
2023-01-02T11:08:52.904Z,5
2023-01-02T11:09:52.893Z,4.89
2023-01-02T11:10:52.905Z,5.17
2023-01-02T11:11:52.896Z,5.17
2023-01-02T11:12:52.906Z,4.89
2023-01-02T11:13:54.459Z,5.17
2023-01-02T11:14:52.914Z,4.56
2023-01-02T11:15:52.955Z,4.44
2023-01-02T11:16:52.906Z,4.28
2023-01-02T11:17:52.898Z,3.83
2023-01-02T11:18:52.896Z,4.72
2023-01-02T11:19:52.902Z,4.28
2023-01-02T11:20:52.919Z,4.44
2023-01-02T11:21:52.896Z,4.72
2023-01-02T11:22:52.902Z,4.28
2023-01-02T11:23:52.912Z,4
2023-01-02T11:24:57.758Z,4.28
2023-01-02T11:25:52.912Z,4.28
2023-01-02T11:26:52.910Z,4
2023-01-02T11:27:52.906Z,3.72
2023-01-02T11:28:52.910Z,4.28
2023-01-02T11:29:52.904Z,4.56
2023-01-02T11:30:52.919Z,4.44
2023-01-02T11:31:57.363Z,3.72
2023-01-02T11:32:52.934Z,4.28
2023-01-02T11:33:52.946Z,4.72
2023-01-02T11:34:52.938Z,4.72
2023-01-02T11:35:52.898Z,4.44
2023-01-02T11:36:52.932Z,5
2023-01-02T11:37:52.912Z,5.33
2023-01-02T11:38:52.903Z,4.89
2023-01-02T11:39:52.917Z,4.89
2023-01-02T11:40:52.907Z,5.33
2023-01-02T11:41:52.918Z,5.33
2023-01-02T11:42:52.935Z,5.72
2023-01-02T11:43:52.906Z,5.61
2023-01-02T11:44:52.907Z,5.44
2023-01-02T11:45:52.958Z,5.61
2023-01-02T11:46:52.893Z,6
2023-01-02T11:47:52.904Z,5.61
2023-01-02T11:48:52.913Z,5.44
2023-01-02T11:49:52.913Z,5
2023-01-02T11:50:52.928Z,4.89
2023-01-02T11:51:52.909Z,4.44
2023-01-02T11:52:52.931Z,4.44
2023-01-02T11:53:52.907Z,5.17
2023-01-02T11:54:52.914Z,5.17
2023-01-02T11:55:52.907Z,5.17
2023-01-02T11:56:52.911Z,5.33
2023-01-02T11:57:52.902Z,5.61
2023-01-02T11:58:52.916Z,5.33
2023-01-02T11:59:52.933Z,5.72
2023-01-02T12:00:52.904Z,5.83
2023-01-02T12:01:53.018Z,5.83
2023-01-02T12:02:53.058Z,5.33
2023-01-02T12:03:52.945Z,5.39
2023-01-02T12:04:52.911Z,5.44
2023-01-02T12:05:52.927Z,5.44
2023-01-02T12:06:52.934Z,5.44
2023-01-02T12:07:52.910Z,5.61
2023-01-02T12:08:52.948Z,5.72
2023-01-02T12:09:52.935Z,6.56
2023-01-02T12:10:52.927Z,6.39
2023-01-02T12:11:52.932Z,6.83
2023-01-02T12:12:52.903Z,6.39
2023-01-02T12:13:52.940Z,6.67
2023-01-02T12:14:54.860Z,6.39
2023-01-02T12:15:52.933Z,5.78
2023-01-02T12:16:53.038Z,6.06
2023-01-02T12:17:52.914Z,6.22
2023-01-02T12:18:52.923Z,6.06
2023-01-02T12:19:52.914Z,6.06
2023-01-02T12:20:52.921Z,6.72
2023-01-02T12:21:52.953Z,7
2023-01-02T12:22:52.934Z,7.22
2023-01-02T12:23:52.926Z,7.5
2023-01-02T12:24:52.945Z,7.5
2023-01-02T12:25:52.924Z,7.11
2023-01-02T12:26:52.922Z,7.72
2023-01-02T12:27:52.931Z,8.11
2023-01-02T12:28:52.919Z,7.78
2023-01-02T12:29:52.940Z,7.78
2023-01-02T12:30:52.917Z,7.5
2023-01-02T12:31:52.949Z,7.39
2023-01-02T12:32:52.923Z,7.11
2023-01-02T12:33:52.926Z,7.11
2023-01-02T12:34:52.927Z,7.22
2023-01-02T12:35:52.939Z,7.22
2023-01-02T12:36:52.935Z,7.11
2023-01-02T12:37:52.924Z,7.11
2023-01-02T12:38:52.922Z,7.11
2023-01-02T12:39:52.961Z,7.22
2023-01-02T12:40:52.973Z,7.39
2023-01-02T12:42:01.107Z,7.11
2023-01-02T12:42:52.929Z,7.11
2023-01-02T12:43:52.951Z,6.94
2023-01-02T12:44:52.929Z,7.5
2023-01-02T12:45:52.946Z,7.67
2023-01-02T12:46:52.946Z,8.11
2023-01-02T12:47:52.948Z,7.5
2023-01-02T12:48:52.930Z,7.5
2023-01-02T12:49:52.922Z,7.78
2023-01-02T12:50:52.927Z,8.11
2023-01-02T12:51:52.926Z,8.39
2023-01-02T12:52:52.925Z,8.28
2023-01-02T12:54:19.430Z,8.5
2023-01-02T12:54:52.935Z,8.28
2023-01-02T12:55:52.936Z,8.28
2023-01-02T12:56:52.953Z,8.11
2023-01-02T12:57:52.948Z,8.39
2023-01-02T12:58:52.919Z,8.39
2023-01-02T12:59:52.936Z,8.39
2023-01-02T13:00:52.998Z,8.5